createdAt,value
2023-05-15T00:00:25.418Z,1.55
2023-05-15T00:01:27.180Z,2.05
2023-05-15T00:02:30.041Z,1.30
2023-05-15T00:03:31.983Z,1.60
2023-05-15T00:04:34.793Z,1.42
2023-05-15T00:05:37.917Z,1.45
2023-05-15T00:06:40.640Z,1.50
2023-05-15T00:07:44.882Z,1.90
2023-05-15T00:08:47.577Z,1.60
2023-05-15T00:09:49.290Z,1.60
2023-05-15T00:11:00.810Z,1.42
2023-05-15T00:12:04.016Z,1.83
2023-05-15T00:13:06.711Z,1.80
2023-05-15T00:14:08.496Z,1.58
2023-05-15T00:15:11.814Z,1.60
2023-05-15T00:16:13.623Z,1.58
2023-05-15T00:17:16.498Z,1.77
2023-05-15T00:18:18.188Z,1.63
2023-05-15T00:19:20.977Z,1.77
2023-05-15T00:20:22.827Z,1.40
2023-05-15T00:21:27.012Z,1.63
2023-05-15T00:22:28.758Z,1.60
2023-05-15T00:23:31.519Z,1.75
2023-05-15T00:24:34.104Z,1.70
2023-05-15T00:25:36.793Z,1.77
2023-05-15T00:26:38.579Z,1.92
2023-05-15T00:27:41.270Z,1.63
2023-05-15T00:28:42.978Z,1.35
2023-05-15T00:29:45.650Z,1.50
2023-05-15T00:30:47.373Z,1.77
2023-05-15T00:31:50.163Z,1.67
2023-05-15T00:32:52.117Z,1.60
2023-05-15T00:33:54.805Z,1.40
2023-05-15T00:34:56.568Z,1.73
2023-05-15T00:35:59.259Z,1.27
2023-05-15T00:37:02.363Z,1.38
2023-05-15T00:38:05.178Z,1.60
2023-05-15T00:39:06.892Z,1.52
2023-05-15T00:40:11.509Z,1.60
2023-05-15T00:41:13.449Z,1.50
2023-05-15T00:42:17.228Z,1.80
2023-05-15T00:43:19.353Z,2.00
2023-05-15T00:44:22.289Z,1.90
2023-05-15T00:45:25.085Z,1.80
2023-05-15T00:46:29.301Z,1.90
2023-05-15T00:47:31.351Z,1.63
2023-05-15T00:48:34.345Z,1.73
2023-05-15T00:49:37.322Z,1.35
2023-05-15T00:50:41.376Z,1.73
2023-05-15T00:51:43.343Z,1.48
2023-05-15T00:52:47.448Z,1.40
2023-05-15T00:53:50.688Z,1.20
2023-05-15T00:54:53.390Z,1.30
2023-05-15T00:55:57.484Z,1.52
2023-05-15T00:57:00.537Z,1.40
2023-05-15T00:58:03.259Z,1.40
2023-05-15T00:59:06.181Z,1.40
2023-05-15T01:00:10.493Z,1.38
2023-05-15T01:01:14.413Z,1.50
2023-05-15T01:02:18.439Z,1.40
2023-05-15T01:03:21.546Z,1.45
2023-05-15T01:04:23.423Z,1.52
2023-05-15T01:05:26.598Z,1.65
2023-05-15T01:06:28.914Z,1.48
2023-05-15T01:07:32.977Z,1.50
2023-05-15T01:08:38.954Z,1.65
2023-05-15T01:09:43.207Z,1.50
2023-05-15T01:10:46.028Z,1.58
2023-05-15T01:11:51.715Z,1.35
2023-05-15T01:12:54.439Z,1.33
2023-05-15T01:13:57.126Z,1.60
2023-05-15T01:14:58.967Z,1.40
2023-05-15T01:16:01.632Z,1.33
2023-05-15T01:17:03.538Z,1.40
2023-05-15T01:18:07.338Z,1.20
2023-05-15T01:19:09.213Z,1.50
2023-05-15T01:20:13.682Z,1.13
2023-05-15T01:21:54.121Z,1.38
2023-05-15T01:23:07.599Z,1.60
2023-05-15T01:24:27.526Z,1.65
2023-05-15T01:25:48.153Z,1.10
2023-05-15T01:27:22.933Z,1.60
2023-05-15T01:28:31.492Z,1.70
2023-05-15T01:29:37.550Z,1.70
2023-05-15T01:30:41.282Z,1.83
2023-05-15T01:31:45.608Z,1.50
2023-05-15T01:32:52.440Z,1.60
2023-05-15T01:33:57.516Z,1.75
2023-05-15T01:35:06.961Z,1.50
2023-05-15T01:36:15.254Z,1.80
2023-05-15T01:37:19.336Z,1.80
2023-05-15T01:38:27.606Z,1.60
2023-05-15T01:39:29.402Z,1.70
2023-05-15T01:40:32.090Z,1.80
2023-05-15T01:41:37.082Z,1.60
2023-05-15T01:42:44.546Z,1.95
2023-05-15T01:43:50.424Z,1.88
2023-05-15T01:44:56.130Z,1.55
2023-05-15T01:45:58.990Z,1.85
2023-05-15T01:47:06.002Z,1.65
2023-05-15T01:48:08.839Z,1.83
2023-05-15T01:49:14.361Z,1.67
2023-05-15T01:50:17.905Z,2.05
2023-05-15T01:51:21.210Z,1.50
2023-05-15T01:52:25.373Z,1.35
2023-05-15T01:53:28.329Z,1.58
2023-05-15T01:54:30.134Z,1.58
2023-05-15T01:55:33.441Z,1.65
2023-05-15T01:56:36.169Z,1.48
2023-05-15T01:57:39.630Z,1.70
2023-05-15T01:58:41.663Z,1.65
2023-05-15T01:59:46.030Z,1.67
2023-05-15T02:00:48.096Z,1.33
2023-05-15T02:01:51.717Z,1.55
2023-05-15T02:02:53.825Z,1.40
2023-05-15T02:03:57.011Z,1.88
2023-05-15T02:04:59.173Z,1.45
2023-05-15T02:06:03.358Z,1.45
2023-05-15T02:07:05.867Z,1.52
2023-05-15T02:08:08.872Z,1.83
2023-05-15T02:09:10.714Z,1.55
2023-05-15T02:10:14.110Z,1.60
2023-05-15T02:11:15.840Z,1.40
2023-05-15T02:12:19.284Z,1.80
2023-05-15T02:13:21.904Z,1.60
2023-05-15T02:14:25.468Z,1.33
2023-05-15T02:15:29.319Z,1.83
2023-05-15T02:16:32.129Z,1.80
2023-05-15T02:17:33.938Z,1.50
2023-05-15T02:18:37.478Z,1.70
2023-05-15T02:19:39.298Z,1.73
2023-05-15T02:20:41.941Z,1.45
2023-05-15T02:21:43.653Z,1.63
2023-05-15T02:22:46.398Z,1.60
2023-05-15T02:23:48.146Z,2.00
2023-05-15T02:24:50.795Z,1.58
2023-05-15T02:26:07.862Z,1.60
2023-05-15T02:27:14.473Z,1.80
2023-05-15T02:28:24.093Z,1.73
2023-05-15T02:29:32.191Z,1.80
2023-05-15T02:30:43.370Z,1.60
2023-05-15T02:31:50.367Z,1.65
2023-05-15T02:32:59.901Z,1.58
2023-05-15T02:34:08.649Z,1.80
2023-05-15T02:35:17.603Z,1.63
2023-05-15T02:36:21.047Z,1.60
2023-05-15T02:37:27.192Z,1.33
2023-05-15T02:38:31.519Z,1.73
2023-05-15T02:39:34.757Z,1.55
2023-05-15T02:40:37.305Z,1.50
2023-05-15T02:41:40.342Z,1.58
2023-05-15T02:42:43.035Z,1.63
2023-05-15T02:43:47.106Z,1.70
2023-05-15T02:44:49.009Z,1.60
2023-05-15T02:45:53.889Z,2.10
2023-05-15T02:46:55.771Z,1.63
2023-05-15T02:47:58.752Z,1.65
2023-05-15T02:49:01.047Z,1.42
2023-05-15T02:50:04.370Z,1.40
2023-05-15T02:51:07.097Z,1.83
2023-05-15T02:52:09.885Z,1.65
2023-05-15T02:53:14.395Z,1.30
2023-05-15T02:54:17.671Z,1.42
2023-05-15T02:55:19.384Z,1.75
2023-05-15T02:56:22.320Z,1.60
2023-05-15T02:57:24.036Z,1.77
2023-05-15T02:58:26.748Z,1.63
2023-05-15T02:59:28.540Z,1.60
2023-05-15T03:00:31.226Z,1.60
2023-05-15T03:01:34.359Z,1.50
2023-05-15T03:02:37.138Z,1.60
2023-05-15T03:03:38.898Z,1.40
2023-05-15T03:04:41.605Z,1.73
2023-05-15T03:05:43.402Z,1.60
2023-05-15T03:06:46.112Z,1.73
2023-05-15T03:07:47.926Z,1.38
2023-05-15T03:08:50.656Z,1.27
2023-05-15T03:09:52.328Z,1.50
2023-05-15T03:10:55.053Z,1.70
2023-05-15T03:11:56.803Z,1.50
2023-05-15T03:12:59.571Z,1.50
2023-05-15T03:14:01.288Z,1.33
2023-05-15T03:15:04.079Z,1.50
2023-05-15T03:16:06.239Z,1.50
2023-05-15T03:17:10.323Z,1.60
2023-05-15T03:18:12.225Z,1.35
2023-05-15T03:19:15.294Z,1.55
2023-05-15T03:20:17.263Z,1.55
2023-05-15T03:21:20.108Z,1.48
2023-05-15T03:22:21.846Z,1.40
2023-05-15T03:23:24.525Z,1.48
2023-05-15T03:24:26.234Z,1.45
2023-05-15T03:25:29.038Z,1.65
2023-05-15T03:26:30.701Z,1.40
2023-05-15T03:27:33.390Z,1.58
2023-05-15T03:28:35.090Z,1.90
2023-05-15T03:29:37.785Z,1.50
2023-05-15T03:30:39.441Z,1.58
2023-05-15T03:31:42.189Z,1.60
2023-05-15T03:32:45.296Z,1.65
2023-05-15T03:33:49.953Z,1.73
2023-05-15T03:34:51.635Z,1.33
2023-05-15T03:35:54.262Z,1.55
2023-05-15T03:36:56.916Z,1.77
2023-05-15T03:37:58.669Z,1.58
2023-05-15T03:39:01.346Z,1.50
2023-05-15T03:40:03.127Z,1.48
2023-05-15T03:41:05.840Z,1.70
2023-05-15T03:42:07.846Z,1.40
2023-05-15T03:43:10.575Z,1.73
2023-05-15T03:44:12.256Z,1.48
2023-05-15T03:45:15.079Z,1.70
2023-05-15T03:46:16.858Z,1.40
2023-05-15T03:47:19.561Z,1.60
2023-05-15T03:48:22.590Z,1.73
2023-05-15T03:49:25.442Z,1.65
2023-05-15T03:50:27.178Z,1.40
2023-05-15T03:51:29.858Z,1.30
2023-05-15T03:52:31.568Z,1.48
2023-05-15T03:53:34.222Z,1.33
2023-05-15T03:54:36.262Z,1.50
2023-05-15T03:55:38.997Z,1.60
2023-05-15T03:56:40.723Z,1.60
2023-05-15T03:57:43.452Z,1.55
2023-05-15T03:58:45.148Z,1.50
2023-05-15T03:59:47.842Z,1.67
2023-05-15T04:00:49.721Z,1.63
2023-05-15T04:02:03.697Z,1.67
2023-05-15T04:03:07.248Z,1.70
2023-05-15T04:04:11.521Z,1.60
2023-05-15T04:05:13.303Z,1.38
2023-05-15T04:06:16.026Z,1.70
2023-05-15T04:07:18.265Z,1.88
2023-05-15T04:08:20.933Z,1.40
2023-05-15T04:09:22.682Z,1.60
2023-05-15T04:10:25.792Z,1.42
2023-05-15T04:11:28.535Z,1.50
2023-05-15T04:12:33.256Z,1.35
2023-05-15T04:13:34.962Z,1.50
2023-05-15T04:14:37.977Z,1.40
2023-05-15T04:15:40.512Z,1.33
2023-05-15T04:16:43.242Z,1.50
2023-05-15T04:17:45.853Z,1.40
2023-05-15T04:18:48.672Z,1.55
2023-05-15T04:19:51.809Z,1.73
2023-05-15T04:20:54.559Z,1.58
2023-05-15T04:21:56.288Z,1.52
2023-05-15T04:22:58.938Z,1.58
2023-05-15T04:24:00.708Z,1.40
2023-05-15T04:25:04.811Z,1.77
2023-05-15T04:26:06.527Z,1.90
2023-05-15T04:27:09.383Z,1.73
2023-05-15T04:28:11.127Z,1.65
2023-05-15T04:29:13.796Z,1.90
2023-05-15T04:30:15.671Z,1.50
2023-05-15T04:31:18.668Z,1.60
2023-05-15T04:32:20.430Z,1.60
2023-05-15T04:33:23.055Z,1.58
2023-05-15T04:34:24.778Z,1.75
2023-05-15T04:35:29.113Z,1.85
2023-05-15T04:36:31.181Z,1.25
2023-05-15T04:37:33.997Z,1.80
2023-05-15T04:38:35.711Z,1.70
2023-05-15T04:39:38.393Z,2.00
2023-05-15T04:40:40.089Z,1.60
2023-05-15T04:41:42.723Z,2.10
2023-05-15T04:42:44.473Z,1.90
2023-05-15T04:43:47.107Z,1.70
2023-05-15T04:44:48.922Z,1.50
2023-05-15T04:45:51.749Z,2.13
2023-05-15T04:46:53.425Z,1.65
2023-05-15T04:47:56.204Z,1.63
2023-05-15T04:48:57.932Z,1.77
2023-05-15T04:50:00.698Z,1.60
2023-05-15T04:51:03.900Z,2.20
2023-05-15T04:52:06.573Z,2.08
2023-05-15T04:53:08.274Z,2.00
2023-05-15T04:54:10.991Z,1.80
2023-05-15T04:55:12.703Z,1.77
2023-05-15T04:56:15.444Z,1.70
2023-05-15T04:57:17.286Z,2.20
2023-05-15T04:58:19.988Z,1.80
2023-05-15T04:59:21.684Z,1.90
2023-05-15T05:00:24.719Z,1.88
2023-05-15T05:01:26.535Z,2.20
2023-05-15T05:02:29.227Z,1.80
2023-05-15T05:03:31.003Z,2.20
2023-05-15T05:04:33.860Z,2.10
2023-05-15T05:05:35.639Z,2.08
2023-05-15T05:06:39.658Z,2.00
2023-05-15T05:07:42.308Z,2.28
2023-05-15T05:08:45.002Z,2.17
2023-05-15T05:09:47.634Z,2.05
2023-05-15T05:10:49.387Z,1.73
2023-05-15T05:11:52.059Z,2.05
2023-05-15T05:12:53.862Z,2.20
2023-05-15T05:13:56.532Z,2.38
2023-05-15T05:14:58.264Z,2.33
2023-05-15T05:16:00.987Z,2.58
2023-05-15T05:17:03.472Z,2.65
2023-05-15T05:18:06.967Z,2.08
2023-05-15T05:19:08.707Z,2.40
2023-05-15T05:20:13.453Z,2.00
2023-05-15T05:21:15.329Z,2.50
2023-05-15T05:22:19.465Z,2.50
2023-05-15T05:23:21.240Z,2.67
2023-05-15T05:24:23.915Z,2.30
2023-05-15T05:25:25.870Z,2.53
2023-05-15T05:26:29.289Z,2.60
2023-05-15T05:27:31.054Z,2.50
2023-05-15T05:28:33.778Z,2.63
2023-05-15T05:29:35.498Z,2.90
2023-05-15T05:30:38.195Z,2.67
2023-05-15T05:31:39.947Z,3.00
2023-05-15T05:32:42.821Z,2.63
2023-05-15T05:33:44.606Z,2.45
2023-05-15T05:34:47.309Z,2.65
2023-05-15T05:35:49.096Z,2.67
2023-05-15T05:36:51.794Z,2.72
2023-05-15T05:37:54.870Z,2.70
2023-05-15T05:38:57.555Z,2.40
2023-05-15T05:39:59.286Z,2.55
2023-05-15T05:41:03.071Z,2.72
2023-05-15T05:42:05.570Z,4.38
2023-05-15T05:43:08.261Z,2.72
2023-05-15T05:44:09.965Z,2.72
2023-05-15T05:45:12.921Z,2.40
2023-05-15T05:46:14.585Z,2.42
2023-05-15T05:47:17.226Z,2.50
2023-05-15T05:48:19.313Z,3.45
2023-05-15T05:49:24.437Z,2.65
2023-05-15T05:50:26.456Z,3.00
2023-05-15T05:51:29.132Z,3.50
2023-05-15T05:52:31.827Z,3.25
2023-05-15T05:53:34.860Z,3.58
2023-05-15T05:54:37.529Z,3.30
2023-05-15T05:55:39.224Z,3.63
2023-05-15T05:56:42.435Z,3.35
2023-05-15T05:57:44.140Z,3.17
2023-05-15T05:58:46.825Z,3.40
2023-05-15T05:59:49.814Z,3.50
2023-05-15T06:00:52.494Z,3.33
2023-05-15T06:01:54.296Z,3.30
2023-05-15T06:02:59.002Z,3.28
2023-05-15T06:04:01.660Z,3.33
2023-05-15T06:05:04.713Z,3.13
2023-05-15T06:06:06.640Z,3.80
2023-05-15T06:07:09.694Z,3.53
2023-05-15T06:08:11.921Z,3.72
2023-05-15T06:09:16.639Z,3.10
2023-05-15T06:10:19.701Z,3.47
2023-05-15T06:11:23.190Z,3.47
2023-05-15T06:12:27.926Z,3.42
2023-05-15T06:13:29.641Z,3.47
2023-05-15T06:14:32.413Z,3.30
2023-05-15T06:15:34.087Z,3.67
2023-05-15T06:16:36.857Z,3.60
2023-05-15T06:17:38.668Z,3.70
2023-05-15T06:18:41.476Z,3.70
2023-05-15T06:19:43.258Z,3.22
2023-05-15T06:20:46.882Z,3.30
2023-05-15T06:21:48.674Z,3.30
2023-05-15T06:22:51.398Z,3.10
2023-05-15T06:23:53.127Z,3.30
2023-05-15T06:24:57.216Z,3.40
2023-05-15T06:25:58.991Z,3.40
2023-05-15T06:27:01.647Z,3.20
2023-05-15T06:28:03.442Z,2.97
2023-05-15T06:29:06.370Z,3.10
2023-05-15T06:30:09.123Z,3.30
2023-05-15T06:31:11.788Z,3.30
2023-05-15T06:32:13.617Z,3.28
2023-05-15T06:33:16.289Z,3.10
2023-05-15T06:34:18.017Z,3.15
2023-05-15T06:35:20.835Z,2.88
2023-05-15T06:36:22.587Z,2.78
2023-05-15T06:37:25.298Z,3.00
2023-05-15T06:38:26.986Z,3.60
2023-05-15T06:39:29.667Z,2.70
2023-05-15T06:40:33.093Z,3.17
2023-05-15T06:41:35.970Z,3.13
2023-05-15T06:42:37.739Z,3.30
2023-05-15T06:43:40.404Z,3.08
2023-05-15T06:44:42.123Z,3.08
2023-05-15T06:45:44.919Z,2.67
2023-05-15T06:46:46.654Z,2.60
2023-05-15T06:47:49.475Z,2.38
2023-05-15T06:48:51.165Z,2.40
2023-05-15T06:49:55.028Z,3.13
2023-05-15T06:50:56.796Z,2.95
2023-05-15T06:51:59.574Z,2.95
2023-05-15T06:53:01.279Z,3.03
2023-05-15T06:54:04.065Z,3.17
2023-05-15T06:55:06.383Z,2.35
2023-05-15T06:56:10.477Z,2.63
2023-05-15T06:57:13.176Z,2.92
2023-05-15T06:58:14.904Z,3.08
2023-05-15T06:59:17.575Z,2.47
2023-05-15T07:00:19.636Z,2.55
2023-05-15T07:01:22.325Z,2.53
2023-05-15T07:02:25.066Z,2.40
2023-05-15T07:03:26.827Z,2.65
2023-05-15T07:04:31.141Z,2.60
2023-05-15T07:05:32.882Z,2.35
2023-05-15T07:06:36.358Z,2.75
2023-05-15T07:07:38.108Z,2.80
2023-05-15T07:08:40.776Z,2.78
2023-05-15T07:09:42.573Z,2.97
2023-05-15T07:10:45.322Z,2.67
2023-05-15T07:11:48.537Z,2.60
2023-05-15T07:12:51.200Z,2.30
2023-05-15T07:13:53.174Z,2.40
2023-05-15T07:14:55.819Z,2.80
2023-05-15T07:15:58.033Z,2.95
2023-05-15T07:17:00.958Z,2.80
2023-05-15T07:18:02.885Z,2.50
2023-05-15T07:19:05.865Z,2.78
2023-05-15T07:20:08.500Z,4.57
2023-05-15T07:21:11.240Z,3.53
2023-05-15T07:22:12.936Z,3.45
2023-05-15T07:23:16.035Z,3.05
2023-05-15T07:24:17.723Z,3.40
2023-05-15T07:25:20.491Z,2.58
2023-05-15T07:26:34.495Z,2.47
2023-05-15T07:27:40.543Z,2.90
2023-05-15T07:28:42.312Z,2.75
2023-05-15T07:29:45.080Z,2.70
2023-05-15T07:30:46.817Z,2.70
2023-05-15T07:31:49.507Z,2.85
2023-05-15T07:32:52.271Z,3.30
2023-05-15T07:33:53.994Z,2.88
2023-05-15T07:34:56.642Z,3.08
2023-05-15T07:35:58.342Z,2.72
2023-05-15T07:37:01.044Z,2.50
2023-05-15T07:38:03.798Z,3.20
2023-05-15T07:39:06.021Z,2.65
2023-05-15T07:40:09.641Z,2.85
2023-05-15T07:41:11.318Z,2.67
2023-05-15T07:42:14.022Z,2.88
2023-05-15T07:43:17.117Z,2.63
2023-05-15T07:44:19.779Z,2.58
2023-05-15T07:45:21.969Z,2.63
2023-05-15T07:46:24.849Z,2.60
2023-05-15T07:47:27.548Z,2.80
2023-05-15T07:48:29.239Z,2.75
2023-05-15T07:49:31.940Z,2.55
2023-05-15T07:50:33.641Z,2.55
2023-05-15T07:51:36.332Z,2.58
2023-05-15T07:52:39.078Z,2.83
2023-05-15T07:53:41.818Z,2.15
2023-05-15T07:54:44.506Z,2.38
2023-05-15T07:55:47.516Z,2.70
2023-05-15T07:56:50.196Z,2.58
2023-05-15T07:57:54.080Z,2.78
2023-05-15T07:58:58.384Z,2.25
2023-05-15T08:00:00.247Z,2.10
2023-05-15T08:01:02.889Z,2.67
2023-05-15T08:02:04.817Z,2.28
2023-05-15T08:03:07.731Z,2.30
2023-05-15T08:04:09.799Z,2.50
2023-05-15T08:05:12.644Z,2.40
2023-05-15T08:06:14.409Z,2.40
2023-05-15T08:07:17.106Z,1.98
2023-05-15T08:08:18.776Z,1.80
2023-05-15T08:09:21.465Z,2.25
2023-05-15T08:10:24.774Z,2.60
2023-05-15T08:11:26.701Z,2.33
2023-05-15T08:12:29.360Z,2.17
2023-05-15T08:13:31.108Z,2.50
2023-05-15T08:14:35.237Z,2.22
2023-05-15T08:15:37.028Z,2.80
2023-05-15T08:16:39.787Z,2.40
2023-05-15T08:17:41.627Z,2.50
2023-05-15T08:18:44.321Z,2.35
2023-05-15T08:19:46.286Z,2.42
2023-05-15T08:20:48.916Z,2.60
2023-05-15T08:21:51.821Z,2.97
2023-05-15T08:22:53.514Z,1.92
2023-05-15T08:23:56.230Z,2.53
2023-05-15T08:25:00.248Z,2.67
2023-05-15T08:26:03.036Z,2.25
2023-05-15T08:27:05.393Z,2.47
2023-05-15T08:28:08.029Z,2.33
2023-05-15T08:29:11.563Z,2.35
2023-05-15T08:30:15.267Z,2.30
2023-05-15T08:31:18.017Z,2.40
2023-05-15T08:32:19.691Z,2.15
2023-05-15T08:33:22.381Z,2.13
2023-05-15T08:34:25.026Z,2.17
2023-05-15T08:35:26.928Z,2.28
2023-05-15T08:36:29.874Z,2.03
2023-05-15T08:37:33.691Z,2.47
2023-05-15T08:38:36.510Z,2.30
2023-05-15T08:39:38.190Z,2.45
2023-05-15T08:40:41.510Z,2.67
2023-05-15T08:41:48.699Z,2.95
2023-05-15T08:42:55.026Z,2.47
2023-05-15T08:43:58.941Z,2.40
2023-05-15T08:45:01.008Z,2.10
2023-05-15T08:46:06.487Z,2.10
2023-05-15T08:47:09.566Z,2.28
2023-05-15T08:48:14.235Z,2.53
2023-05-15T08:49:22.811Z,2.22
2023-05-15T08:50:26.365Z,2.20
2023-05-15T08:51:28.152Z,2.30
2023-05-15T08:52:31.360Z,2.20
2023-05-15T08:53:33.087Z,2.28
2023-05-15T08:54:36.257Z,2.28
2023-05-15T08:55:39.110Z,2.40
2023-05-15T08:56:42.099Z,2.42
2023-05-15T08:57:44.966Z,2.35
2023-05-15T08:58:46.811Z,2.08
2023-05-15T08:59:49.829Z,2.58
2023-05-15T09:00:52.149Z,2.42
2023-05-15T09:01:56.783Z,2.15
2023-05-15T09:02:59.825Z,2.28
2023-05-15T09:04:02.612Z,2.55
2023-05-15T09:05:06.248Z,2.03
2023-05-15T09:06:09.966Z,2.55
2023-05-15T09:07:13.110Z,2.42
2023-05-15T09:08:16.598Z,2.60
2023-05-15T09:09:18.699Z,2.47
2023-05-15T09:10:22.211Z,2.55
2023-05-15T09:11:27.877Z,2.08
2023-05-15T09:12:34.997Z,1.90
2023-05-15T09:13:36.741Z,2.10
2023-05-15T09:14:39.591Z,2.53
2023-05-15T09:15:41.365Z,2.25
2023-05-15T09:16:46.827Z,2.10
2023-05-15T09:17:51.840Z,2.45
2023-05-15T09:18:54.073Z,2.30
2023-05-15T09:19:56.773Z,2.50
2023-05-15T09:21:24.283Z,2.80
2023-05-15T09:22:27.052Z,2.75
2023-05-15T09:23:29.969Z,2.80
2023-05-15T09:24:31.682Z,3.15
2023-05-15T09:25:37.478Z,2.50
2023-05-15T09:26:40.246Z,3.20
2023-05-15T09:27:44.775Z,3.10
2023-05-15T09:28:46.537Z,2.90
2023-05-15T09:29:51.355Z,2.63
2023-05-15T09:30:57.603Z,2.90
2023-05-15T09:32:03.726Z,2.28
2023-05-15T09:33:08.239Z,2.97
2023-05-15T09:34:10.205Z,2.85
2023-05-15T09:35:32.329Z,3.17
2023-05-15T09:36:35.036Z,2.95
2023-05-15T09:37:37.690Z,2.70
2023-05-15T09:38:42.721Z,3.33
2023-05-15T09:39:46.248Z,3.00
2023-05-15T09:40:47.943Z,2.95
2023-05-15T09:41:50.647Z,2.90
2023-05-15T09:42:52.568Z,2.75
2023-05-15T09:43:56.695Z,3.10
2023-05-15T09:44:58.463Z,2.65
2023-05-15T09:46:01.249Z,3.00
2023-05-15T09:47:06.217Z,2.80
2023-05-15T09:48:11.885Z,3.30
2023-05-15T09:49:15.158Z,3.30
2023-05-15T09:50:22.038Z,3.47
2023-05-15T09:51:24.947Z,2.70
2023-05-15T09:52:27.810Z,2.83
2023-05-15T09:53:31.734Z,2.83
2023-05-15T09:54:34.574Z,2.90
2023-05-15T09:55:37.634Z,3.10
2023-05-15T09:56:40.363Z,3.03
2023-05-15T09:57:44.110Z,2.80
2023-05-15T09:58:56.409Z,3.00
2023-05-15T10:00:02.425Z,2.72
2023-05-15T10:01:10.735Z,2.78
2023-05-15T10:02:15.483Z,2.85
2023-05-15T10:03:21.167Z,3.35
2023-05-15T10:04:22.885Z,2.80
2023-05-15T10:05:42.029Z,3.38
2023-05-15T10:06:47.932Z,3.50
2023-05-15T10:07:55.155Z,3.28
2023-05-15T10:08:58.531Z,3.35
2023-05-15T10:10:02.322Z,3.30
2023-05-15T10:11:04.903Z,3.72
2023-05-15T10:12:09.531Z,3.53
2023-05-15T10:13:12.353Z,3.78
2023-05-15T10:14:15.114Z,3.80
2023-05-15T10:15:17.877Z,3.42
2023-05-15T10:16:22.296Z,3.67
2023-05-15T10:17:25.373Z,4.50
2023-05-15T10:18:29.918Z,4.10
2023-05-15T10:19:32.784Z,3.28
2023-05-15T10:20:35.901Z,3.30
2023-05-15T10:21:41.263Z,3.05
2023-05-15T10:22:46.165Z,3.42
2023-05-15T10:23:49.850Z,3.47
2023-05-15T10:24:53.237Z,3.60
2023-05-15T10:25:59.401Z,4.07
2023-05-15T10:27:01.248Z,3.88
2023-05-15T10:28:04.512Z,3.78
2023-05-15T10:29:11.132Z,4.07
2023-05-15T10:30:16.763Z,4.57
2023-05-15T10:31:19.547Z,4.20
2023-05-15T10:32:21.500Z,3.80
2023-05-15T10:33:24.444Z,3.90
2023-05-15T10:34:27.993Z,4.10
2023-05-15T10:35:30.805Z,4.97
2023-05-15T10:36:43.926Z,3.88
2023-05-15T10:37:48.708Z,4.10
2023-05-15T10:38:52.048Z,4.50
2023-05-15T10:39:54.013Z,4.15
2023-05-15T10:41:09.090Z,4.00
2023-05-15T10:42:19.181Z,3.97
2023-05-15T10:43:21.865Z,4.78
2023-05-15T10:44:24.602Z,4.85
2023-05-15T10:45:27.890Z,3.90
2023-05-15T10:46:31.934Z,4.10
2023-05-15T10:47:34.402Z,3.97
2023-05-15T10:48:37.340Z,4.00
2023-05-15T10:49:41.512Z,4.20
2023-05-15T10:50:43.269Z,4.47
2023-05-15T10:51:46.402Z,4.10
2023-05-15T10:52:51.902Z,4.20
2023-05-15T10:53:54.558Z,3.95
2023-05-15T10:54:57.306Z,4.38
2023-05-15T10:56:00.058Z,4.00
2023-05-15T10:57:02.968Z,3.92
2023-05-15T10:58:09.061Z,4.30
2023-05-15T10:59:12.805Z,4.30
2023-05-15T11:00:29.266Z,4.07
2023-05-15T11:01:32.915Z,3.50
2023-05-15T11:02:39.865Z,3.67
2023-05-15T11:03:49.484Z,3.25
2023-05-15T11:04:59.146Z,3.45
2023-05-15T11:06:09.387Z,3.20
2023-05-15T11:07:16.536Z,3.60
2023-05-15T11:08:26.045Z,3.85
2023-05-15T11:09:39.011Z,3.72
2023-05-15T11:10:41.781Z,3.72
2023-05-15T11:11:57.886Z,4.40
2023-05-15T11:13:04.914Z,4.15
2023-05-15T11:14:13.026Z,4.07
2023-05-15T11:15:20.506Z,4.22
2023-05-15T11:16:57.981Z,4.20
2023-05-15T11:18:04.933Z,4.47
2023-05-15T11:19:22.914Z,4.82
2023-05-15T11:20:37.155Z,5.88
2023-05-15T11:21:46.385Z,7.32
2023-05-15T11:22:59.081Z,7.32
2023-05-15T11:24:05.246Z,7.03
2023-05-15T11:25:09.999Z,6.75
2023-05-15T11:26:14.375Z,6.68
2023-05-15T11:27:18.053Z,6.88
2023-05-15T11:28:22.856Z,7.22
2023-05-15T11:29:24.624Z,7.13
2023-05-15T11:30:41.168Z,6.72
2023-05-15T11:31:42.910Z,7.32
2023-05-15T11:32:50.011Z,7.35
2023-05-15T11:33:52.781Z,7.35
2023-05-15T11:35:02.609Z,7.45
2023-05-15T11:36:07.203Z,7.18
2023-05-15T11:37:17.257Z,7.13
2023-05-15T11:38:20.957Z,6.82
2023-05-15T11:39:24.182Z,7.57
2023-05-15T11:40:28.099Z,6.57
2023-05-15T11:41:32.972Z,6.63
2023-05-15T11:42:34.744Z,7.28
2023-05-15T11:43:37.489Z,7.55
2023-05-15T11:44:39.844Z,7.22
2023-05-15T11:45:42.603Z,6.95
2023-05-15T11:46:45.483Z,6.32
2023-05-15T11:47:48.284Z,7.43
2023-05-15T11:48:51.380Z,6.95
2023-05-15T11:49:53.211Z,6.95
2023-05-15T11:50:55.878Z,6.88
2023-05-15T11:52:01.080Z,6.38
2023-05-15T11:53:07.200Z,6.35
2023-05-15T11:54:11.821Z,7.65
2023-05-15T11:55:13.837Z,7.40
2023-05-15T11:56:20.902Z,6.57
2023-05-15T11:57:24.974Z,7.03
2023-05-15T11:58:27.948Z,6.47
2023-05-15T11:59:32.009Z,6.93
2023-05-15T12:00:35.119Z,5.72
2023-05-15T12:01:42.220Z,6.22
2023-05-15T12:02:44.280Z,6.45
2023-05-15T12:03:48.500Z,5.65
2023-05-15T12:04:51.622Z,6.32
2023-05-15T12:05:59.698Z,5.93
2023-05-15T12:07:04.445Z,6.80
2023-05-15T12:08:10.679Z,6.22
2023-05-15T12:09:17.520Z,6.10
2023-05-15T12:10:20.227Z,5.88
2023-05-15T12:11:22.697Z,6.03
2023-05-15T12:12:27.681Z,5.22
2023-05-15T12:13:30.991Z,5.30
2023-05-15T12:14:33.946Z,5.60
2023-05-15T12:15:38.508Z,4.88
2023-05-15T12:16:41.227Z,4.95
2023-05-15T12:17:44.416Z,5.20
2023-05-15T12:18:48.514Z,4.70
2023-05-15T12:19:50.342Z,4.72
2023-05-15T12:20:53.737Z,4.68
2023-05-15T12:21:55.482Z,4.78
2023-05-15T12:22:59.679Z,4.90
2023-05-15T12:25:07.995Z,3.83
2023-05-15T12:26:10.878Z,3.58
2023-05-15T12:27:13.148Z,3.83
2023-05-15T12:28:15.949Z,3.67
2023-05-15T12:29:18.819Z,3.28
2023-05-15T12:30:21.166Z,3.47
2023-05-15T12:31:24.216Z,2.72
2023-05-15T12:32:27.581Z,3.05
2023-05-15T12:33:30.564Z,3.33
2023-05-15T12:34:33.628Z,3.08
2023-05-15T12:35:36.727Z,3.20
2023-05-15T12:36:41.226Z,3.40
2023-05-15T12:37:43.949Z,3.63
2023-05-15T12:38:47.974Z,3.42
2023-05-15T12:39:51.346Z,3.33
2023-05-15T12:40:54.646Z,3.17
2023-05-15T12:41:59.275Z,3.05
2023-05-15T12:43:05.897Z,3.17
2023-05-15T12:44:17.111Z,4.00
2023-05-15T12:45:20.903Z,4.45
2023-05-15T12:46:23.656Z,4.65
2023-05-15T12:47:27.774Z,3.80
2023-05-15T12:48:32.264Z,4.45
2023-05-15T12:49:37.654Z,4.63
2023-05-15T12:50:40.697Z,4.95
2023-05-15T12:51:44.021Z,5.22
2023-05-15T12:52:52.543Z,4.80
2023-05-15T12:53:58.039Z,4.97
2023-05-15T12:55:00.486Z,5.57
2023-05-15T12:56:04.743Z,5.70
2023-05-15T12:57:07.586Z,5.93
2023-05-15T12:58:10.811Z,5.15
2023-05-15T12:59:13.713Z,5.50
2023-05-15T13:00:17.171Z,4.97
2023-05-15T13:01:20.006Z,5.38
2023-05-15T13:02:23.376Z,4.80
2023-05-15T13:03:27.889Z,4.70
2023-05-15T13:04:33.954Z,4.28
2023-05-15T13:05:38.021Z,4.22
2023-05-15T13:07:45.608Z,4.15
2023-05-15T13:08:48.884Z,4.35
2023-05-15T13:10:05.949Z,4.38
2023-05-15T13:11:12.616Z,4.53
2023-05-15T13:12:14.406Z,4.10
2023-05-15T13:13:17.668Z,4.50
2023-05-15T13:14:21.072Z,4.55
2023-05-15T13:15:26.422Z,4.60
2023-05-15T13:16:29.903Z,4.40
2023-05-15T13:17:33.347Z,3.95
2023-05-15T13:18:36.127Z,4.32
2023-05-15T13:19:38.882Z,4.30
2023-05-15T13:20:41.765Z,4.18
2023-05-15T13:21:45.609Z,3.80
2023-05-15T13:22:47.367Z,3.63
2023-05-15T13:23:50.102Z,3.63
2023-05-15T13:24:53.822Z,3.83
2023-05-15T13:25:57.813Z,3.47
2023-05-15T13:26:59.484Z,4.28
2023-05-15T13:28:03.547Z,3.58
2023-05-15T13:29:06.330Z,3.72
2023-05-15T13:30:09.191Z,3.85
2023-05-15T13:31:12.018Z,3.67
2023-05-15T13:32:14.757Z,3.88
2023-05-15T13:33:17.551Z,3.90
2023-05-15T13:34:19.321Z,3.63
2023-05-15T13:35:22.064Z,4.20
2023-05-15T13:36:23.811Z,3.80
2023-05-15T13:37:26.484Z,4.20
2023-05-15T13:38:29.203Z,4.00
2023-05-15T13:39:31.976Z,3.78
2023-05-15T13:40:36.480Z,4.10
2023-05-15T13:41:40.692Z,4.03
2023-05-15T13:42:43.113Z,4.25
2023-05-15T13:43:47.847Z,3.70
2023-05-15T13:44:49.516Z,4.20
2023-05-15T13:45:52.271Z,3.88
2023-05-15T13:46:54.984Z,4.03
2023-05-15T13:47:57.637Z,4.05
2023-05-15T13:49:00.999Z,4.40
2023-05-15T13:50:02.956Z,4.43
2023-05-15T13:51:06.319Z,4.20
2023-05-15T13:52:08.079Z,4.45
2023-05-15T13:53:10.771Z,4.38
2023-05-15T13:54:13.479Z,4.18
2023-05-15T13:55:16.153Z,4.20
2023-05-15T13:56:18.911Z,4.25
2023-05-15T13:57:23.130Z,4.22
2023-05-15T13:58:26.691Z,4.13
2023-05-15T13:59:29.590Z,4.50
2023-05-15T14:00:31.419Z,4.38
2023-05-15T14:01:34.147Z,4.45
2023-05-15T14:02:35.920Z,4.53
2023-05-15T14:03:38.785Z,4.65
2023-05-15T14:04:41.614Z,4.15
2023-05-15T14:05:44.330Z,3.70
2023-05-15T14:06:46.999Z,3.13
2023-05-15T14:07:48.904Z,3.60
2023-05-15T14:08:51.600Z,3.70
2023-05-15T14:09:53.353Z,3.40